Time;durP1;ratioP1;P1;durP2;ratioP2;P2;SDS_P1;SDS_P2;PMS_P1;PMS_P2;Temp;Humidity;BMP_temperature;BMP_pressure;BME280_temperature;BME280_humidity;BME280_pressure;Samples;Min_cycle;Max_cycle;Signal;HPM_P1;HPM_P2
2021/01/27 00:00:03;;;;;;;12.27;8.40;;;1.80;99.90;;;;;;5091717;28;20189;-71
2021/01/27 00:02:33;;;;;;;11.80;7.20;;;1.80;99.90;;;;;;5089597;28;20465;-71
2021/01/27 00:04:59;;;;;;;13.93;8.85;;;1.90;99.90;;;;;;5074900;28;20035;-71
2021/01/27 00:07:25;;;;;;;13.40;9.00;;;1.80;99.90;;;;;;5093362;28;20025;-71
2021/01/27 00:09:50;;;;;;;13.30;9.13;;;1.90;99.90;;;;;;5090464;28;20465;-71
2021/01/27 00:12:18;;;;;;;15.05;9.23;;;1.90;99.90;;;;;;5089897;28;20032;-72
2021/01/27 00:14:46;;;;;;;12.77;8.10;;;1.90;99.90;;;;;;5089954;28;20055;-72
2021/01/27 00:17:14;;;;;;;13.35;9.15;;;1.90;99.90;;;;;;5076748;28;20429;-71
2021/01/27 00:19:40;;;;;;;13.00;9.55;;;1.90;99.90;;;;;;5089684;28;20051;-71
2021/01/27 00:22:08;;;;;;;14.25;9.50;;;1.90;99.90;;;;;;5090590;28;20048;-71
2021/01/27 00:24:38;;;;;;;14.77;9.52;;;1.90;99.90;;;;;;5087951;28;20038;-71
2021/01/27 00:27:04;;;;;;;18.70;9.85;;;1.90;99.90;;;;;;5083494;28;20036;-71
2021/01/27 00:29:31;;;;;;;13.63;9.20;;;1.90;99.90;;;;;;5089524;28;20028;-72
2021/01/27 00:32:04;;;;;;;14.32;9.07;;;2.00;99.90;;;;;;5092093;28;20102;-71
2021/01/27 00:34:32;;;;;;;12.98;8.82;;;2.00;99.90;;;;;;5076043;28;20028;-71
2021/01/27 00:37:02;;;;;;;14.27;9.52;;;2.00;99.90;;;;;;5090056;28;20032;-71
2021/01/27 00:39:28;;;;;;;13.00;9.32;;;2.00;99.90;;;;;;5088458;28;20516;-71
2021/01/27 00:41:56;;;;;;;14.10;9.73;;;2.00;99.90;;;;;;5087560;28;20058;-72
2021/01/27 00:44:22;;;;;;;13.93;9.90;;;2.00;99.90;;;;;;5085462;28;20043;-71
2021/01/27 00:46:50;;;;;;;16.75;10.73;;;1.90;99.90;;;;;;5087220;28;20380;-71
2021/01/27 00:49:18;;;;;;;14.88;10.30;;;1.90;99.90;;;;;;5067174;28;20062;-71
2021/01/27 00:51:43;;;;;;;14.38;10.50;;;1.80;99.90;;;;;;5086693;28;20554;-72
2021/01/27 00:54:09;;;;;;;17.17;11.55;;;1.80;99.90;;;;;;5088452;28;20020;-71
2021/01/27 00:56:35;;;;;;;15.90;10.70;;;1.80;99.90;;;;;;5087450;28;20089;-72
2021/01/27 00:59:00;;;;;;;18.80;12.27;;;1.80;99.90;;;;;;5088599;28;20516;-72
2021/01/27 01:01:30;;;;;;;15.95;11.43;;;1.90;99.90;;;;;;5083020;28;20173;-73
2021/01/27 01:03:57;;;;;;;16.00;11.23;;;1.90;99.90;;;;;;5074971;28;20032;-73
2021/01/27 01:06:23;;;;;;;15.93;11.23;;;1.90;99.90;;;;;;5068545;28;20056;-72
2021/01/27 01:08:49;;;;;;;16.70;12.00;;;1.80;99.90;;;;;;5089775;28;20419;-73
2021/01/27 01:11:17;;;;;;;16.92;12.32;;;1.80;99.90;;;;;;5085195;28;20029;-73
2021/01/27 01:13:45;;;;;;;14.50;10.88;;;1.70;99.90;;;;;;5087151;28;20062;-73
2021/01/27 01:16:10;;;;;;;17.23;11.93;;;1.70;99.90;;;;;;5074136;28;20029;-73
2021/01/27 01:18:38;;;;;;;15.40;10.98;;;1.80;99.90;;;;;;5074579;28;20398;-73
2021/01/27 01:21:06;;;;;;;15.60;11.20;;;1.70;99.90;;;;;;5072780;28;20656;-72
2021/01/27 01:23:34;;;;;;;17.90;11.25;;;1.80;99.90;;;;;;5075328;28;20047;-73
2021/01/27 01:26:02;;;;;;;17.90;12.07;;;1.80;99.90;;;;;;5082782;28;20135;-72
2021/01/27 01:28:28;;;;;;;17.40;12.60;;;1.80;99.90;;;;;;5076830;28;20358;-73
2021/01/27 01:30:56;;;;;;;18.65;13.25;;;1.80;99.90;;;;;;5077709;28;20028;-74
2021/01/27 01:33:26;;;;;;;17.35;12.32;;;1.80;99.90;;;;;;5074986;28;20381;-73
2021/01/27 01:35:54;;;;;;;16.55;12.38;;;1.70;99.90;;;;;;5059627;28;20035;-73
2021/01/27 01:38:22;;;;;;;18.10;11.93;;;1.70;99.90;;;;;;5076701;28;20071;-73
2021/01/27 01:40:54;;;;;;;18.10;12.48;;;1.70;99.90;;;;;;5079210;28;20129;-72
2021/01/27 01:43:21;;;;;;;17.20;11.85;;;1.70;99.90;;;;;;5075861;28;20044;-72
2021/01/27 01:46:00;;;;;;;17.25;11.93;;;1.80;99.90;;;;;;5077451;28;20101;-71
2021/01/27 01:48:54;;;;;;;18.10;12.65;;;1.80;99.90;;;;;;5055932;28;20032;-72
2021/01/27 01:51:46;;;;;;;15.20;11.10;;;1.80;99.90;;;;;;5077687;28;20260;-71
2021/01/27 01:54:30;;;;;;;20.07;12.10;;;1.80;99.90;;;;;;5090607;28;20040;-73
2021/01/27 01:57:02;;;;;;;18.27;12.23;;;1.80;99.90;;;;;;5093328;28;20335;-72
2021/01/27 01:59:30;;;;;;;18.08;12.23;;;1.80;99.90;;;;;;5071045;28;20024;-72
2021/01/27 02:02:03;;;;;;;15.90;11.43;;;1.70;99.90;;;;;;5076427;28;20565;-72
2021/01/27 02:04:38;;;;;;;16.45;12.27;;;1.80;99.90;;;;;;5090071;28;20088;-72
2021/01/27 02:07:06;;;;;;;17.10;11.73;;;1.80;99.90;;;;;;5075049;28;20036;-72
2021/01/27 02:09:36;;;;;;;16.83;12.15;;;1.70;99.90;;;;;;5091745;28;20028;-72
2021/01/27 02:12:21;;;;;;;17.00;12.10;;;1.70;99.90;;;;;;5087355;28;20028;-72
2021/01/27 02:15:13;;;;;;;17.55;12.10;;;1.70;99.90;;;;;;5071750;28;20028;-73
2021/01/27 02:17:51;;;;;;;14.18;10.20;;;1.60;99.90;;;;;;5070741;28;20551;-72
2021/01/27 02:20:34;;;;;;;18.30;12.45;;;1.60;99.90;;;;;;5087100;28;20028;-72
2021/01/27 02:23:10;;;;;;;15.88;11.43;;;1.50;99.90;;;;;;5091094;28;20046;-73
2021/01/27 02:25:58;;;;;;;19.92;12.45;;;1.60;99.90;;;;;;5092068;28;20035;-72
2021/01/27 02:28:46;;;;;;;17.75;11.80;;;1.50;99.90;;;;;;5094464;28;20031;-73
2021/01/27 02:31:33;;;;;;;16.08;11.98;;;1.50;99.90;;;;;;5088173;28;20118;-74
2021/01/27 02:34:15;;;;;;;17.25;11.38;;;1.50;99.90;;;;;;5053311;28;20036;-74
2021/01/27 02:36:46;;;;;;;13.98;9.10;;;1.50;99.90;;;;;;5061207;28;20084;-72
2021/01/27 02:39:18;;;;;;;16.50;13.02;;;1.50;99.90;;;;;;5075483;28;20047;-73
2021/01/27 02:41:54;;;;;;;15.30;11.50;;;1.40;99.90;;;;;;5063079;28;20020;-73
2021/01/27 02:44:23;;;;;;;17.23;11.90;;;1.50;99.90;;;;;;5089002;28;20031;-74
2021/01/27 02:46:53;;;;;;;15.70;11.27;;;1.50;99.90;;;;;;5078034;28;20023;-74
2021/01/27 02:49:43;;;;;;;16.77;11.60;;;1.50;99.90;;;;;;5091231;28;20027;-73
2021/01/27 02:52:13;;;;;;;16.80;12.02;;;1.60;99.90;;;;;;5089927;28;20032;-73
2021/01/27 02:54:44;;;;;;;16.60;11.70;;;1.60;99.90;;;;;;5091391;28;20042;-74
2021/01/27 02:57:28;;;;;;;16.58;12.43;;;1.50;99.90;;;;;;5088481;28;20058;-73
2021/01/27 03:00:07;;;;;;;19.08;12.70;;;1.60;99.90;;;;;;5091834;28;20021;-74
2021/01/27 03:03:05;;;;;;;18.23;12.10;;;1.60;99.90;;;;;;5086296;28;20533;-73
2021/01/27 03:05:41;;;;;;;20.02;13.50;;;1.50;99.90;;;;;;5085986;28;20036;-73
2021/01/27 03:08:19;;;;;;;18.02;12.82;;;1.50;99.90;;;;;;5054261;28;20039;-73
2021/01/27 03:11:04;;;;;;;16.65;12.25;;;1.50;99.90;;;;;;5090684;28;20106;-74
2021/01/27 03:13:30;;;;;;;19.25;12.73;;;1.40;99.90;;;;;;5094205;28;20023;-71
2021/01/27 03:15:59;;;;;;;18.45;12.52;;;1.40;99.90;;;;;;5062115;28;20031;-71
2021/01/27 03:18:29;;;;;;;20.63;12.63;;;1.40;99.90;;;;;;5078451;28;20353;-71
2021/01/27 03:21:02;;;;;;;16.73;11.88;;;1.40;99.90;;;;;;5073069;28;20020;-71
2021/01/27 03:23:42;;;;;;;18.83;13.50;;;1.50;99.90;;;;;;5053349;28;20025;-71
2021/01/27 03:26:08;;;;;;;16.90;12.38;;;1.50;99.90;;;;;;5058219;28;20032;-72
2021/01/27 03:29:05;;;;;;;18.30;12.00;;;1.50;99.90;;;;;;5073636;28;20062;-71
2021/01/27 03:31:33;;;;;;;16.05;10.75;;;1.50;99.90;;;;;;5074674;28;20441;-72
2021/01/27 03:34:06;;;;;;;18.13;12.43;;;1.50;99.90;;;;;;5074489;28;20038;-72
2021/01/27 03:36:38;;;;;;;17.08;12.05;;;1.50;99.90;;;;;;5074886;28;20036;-70
2021/01/27 03:39:04;;;;;;;18.23;12.00;;;1.50;99.90;;;;;;5073866;28;20063;-72
2021/01/27 03:41:39;;;;;;;17.42;11.88;;;1.50;99.90;;;;;;5051816;28;20025;-71
2021/01/27 03:44:28;;;;;;;17.50;11.65;;;1.50;99.90;;;;;;5068280;28;20020;-71
2021/01/27 03:47:02;;;;;;;16.45;10.82;;;1.60;99.90;;;;;;5060100;28;20029;-72
2021/01/27 03:49:57;;;;;;;17.35;12.00;;;1.60;99.90;;;;;;5067887;28;20594;-72
2021/01/27 03:52:41;;;;;;;17.15;11.80;;;1.60;99.90;;;;;;5087774;28;20043;-72
2021/01/27 03:55:16;;;;;;;15.90;10.60;;;1.60;99.90;;;;;;5074820;28;20026;-72
2021/01/27 03:57:47;;;;;;;17.67;11.30;;;1.60;99.90;;;;;;5089363;28;20552;-73
2021/01/27 04:00:15;;;;;;;17.92;12.32;;;1.60;99.90;;;;;;5088535;28;20104;-73
2021/01/27 04:02:42;;;;;;;21.65;12.55;;;1.60;99.90;;;;;;5077185;28;20051;-72
2021/01/27 04:05:08;;;;;;;16.70;11.85;;;1.60;99.90;;;;;;5072025;28;20077;-73
2021/01/27 04:07:37;;;;;;;18.60;12.73;;;1.60;99.90;;;;;;5077988;28;20534;-74
2021/01/27 04:10:03;;;;;;;19.80;13.05;;;1.60;99.90;;;;;;5090775;28;20056;-73
2021/01/27 04:12:31;;;;;;;20.67;13.48;;;1.60;99.90;;;;;;5061695;28;20420;-73
2021/01/27 04:14:59;;;;;;;22.10;13.88;;;1.50;99.90;;;;;;5084408;28;20035;-72
2021/01/27 04:17:26;;;;;;;19.85;13.30;;;1.50;99.90;;;;;;5088116;28;20395;-73
2021/01/27 04:19:52;;;;;;;19.17;12.57;;;1.50;99.90;;;;;;5076295;28;20035;-73
2021/01/27 04:22:20;;;;;;;16.92;12.30;;;1.50;99.90;;;;;;5068840;28;20032;-73
2021/01/27 04:24:46;;;;;;;19.25;12.57;;;1.50;99.90;;;;;;5083384;28;20036;-73
2021/01/27 04:27:12;;;;;;;20.33;12.80;;;1.50;99.90;;;;;;5090649;28;20115;-73
2021/01/27 04:29:40;;;;;;;17.27;11.90;;;1.50;99.90;;;;;;5080108;28;20033;-73
2021/01/27 04:32:05;;;;;;;20.33;12.85;;;1.50;99.90;;;;;;5073453;28;20024;-72
2021/01/27 04:34:34;;;;;;;19.63;13.13;;;1.50;99.90;;;;;;5073426;28;20082;-73
2021/01/27 04:37:02;;;;;;;18.83;12.48;;;1.50;99.90;;;;;;5079794;28;21648;-72
2021/01/27 04:39:28;;;;;;;18.08;12.48;;;1.40;99.90;;;;;;5074281;28;20056;-72
2021/01/27 04:41:58;;;;;;;18.15;12.48;;;1.40;99.90;;;;;;5075237;28;20020;-73
2021/01/27 04:44:29;;;;;;;21.10;12.70;;;1.40;99.90;;;;;;5073991;28;20070;-73
2021/01/27 04:47:35;;;;;;;22.27;12.40;;;1.40;99.90;;;;;;5076443;28;20063;-72
2021/01/27 04:50:05;;;;;;;17.45;11.95;;;1.50;99.90;;;;;;5085359;28;20034;-73
2021/01/27 04:52:56;;;;;;;16.00;11.52;;;1.50;99.90;;;;;;5069088;28;20024;-73
2021/01/27 04:55:28;;;;;;;17.00;12.00;;;1.50;99.90;;;;;;5089434;28;20038;-73
2021/01/27 04:58:15;;;;;;;18.88;11.60;;;1.50;99.90;;;;;;5082492;28;20035;-73
2021/01/27 05:01:05;;;;;;;16.15;11.57;;;1.50;99.90;;;;;;5077046;28;20035;-73
2021/01/27 05:04:02;;;;;;;16.80;11.20;;;1.50;99.90;;;;;;5083391;28;20031;-74
2021/01/27 05:06:31;;;;;;;17.38;11.93;;;1.60;99.90;;;;;;5084425;28;20028;-73
2021/01/27 05:09:02;;;;;;;16.83;11.40;;;1.50;99.90;;;;;;5075025;28;20038;-73
2021/01/27 05:11:31;;;;;;;13.20;8.50;;;1.50;99.90;;;;;;5063687;28;20029;-73
2021/01/27 05:14:00;;;;;;;19.33;10.98;;;1.50;99.90;;;;;;5070868;28;20024;-73
2021/01/27 05:16:29;;;;;;;19.67;12.48;;;1.50;99.90;;;;;;5077730;28;20019;-73
2021/01/27 05:18:59;;;;;;;16.85;11.55;;;1.50;99.90;;;;;;5073089;28;20111;-73
2021/01/27 05:21:38;;;;;;;17.83;11.27;;;1.50;99.90;;;;;;5075502;28;20119;-73
2021/01/27 05:24:05;;;;;;;18.08;11.60;;;1.50;99.90;;;;;;5066522;28;20035;-72
2021/01/27 05:26:58;;;;;;;18.73;12.02;;;1.50;99.90;;;;;;5079904;28;20023;-73
2021/01/27 05:29:28;;;;;;;16.92;11.45;;;1.60;99.90;;;;;;5092686;28;20059;-73
2021/01/27 05:32:07;;;;;;;17.70;10.90;;;1.60;99.90;;;;;;5063483;28;20116;-73
2021/01/27 05:34:36;;;;;;;21.85;12.40;;;1.60;99.90;;;;;;5069720;28;20242;-73
2021/01/27 05:37:15;;;;;;;18.17;11.30;;;1.60;99.90;;;;;;5087593;28;20040;-72
2021/01/27 05:39:46;;;;;;;21.00;12.18;;;1.60;99.90;;;;;;5075422;28;20059;-73
2021/01/27 05:42:32;;;;;;;18.23;11.65;;;1.60;99.90;;;;;;5083889;28;20063;-73
2021/01/27 05:45:19;;;;;;;18.13;11.32;;;1.60;99.90;;;;;;5060141;28;20465;-72
2021/01/27 05:47:44;;;;;;;19.65;12.07;;;1.60;99.90;;;;;;5071914;28;20450;-73
2021/01/27 05:50:18;;;;;;;16.33;11.40;;;1.60;99.90;;;;;;5050167;28;20029;-73
2021/01/27 05:52:49;;;;;;;18.90;12.57;;;1.60;99.90;;;;;;5076145;28;20029;-73
2021/01/27 05:55:18;;;;;;;18.20;11.80;;;1.60;99.90;;;;;;5077327;28;20028;-73
2021/01/27 05:57:46;;;;;;;19.20;12.93;;;1.60;99.90;;;;;;5074824;28;20024;-73
2021/01/27 06:00:27;;;;;;;21.05;12.63;;;1.60;99.90;;;;;;5058983;28;20507;-73
2021/01/27 06:02:55;;;;;;;17.13;11.05;;;1.60;99.90;;;;;;5064486;28;20142;-73
2021/01/27 06:05:36;;;;;;;19.67;13.20;;;1.60;99.90;;;;;;5085002;28;20100;-73
2021/01/27 06:08:15;;;;;;;16.55;11.82;;;1.60;99.90;;;;;;5086829;28;20027;-73
2021/01/27 06:10:44;;;;;;;20.27;12.27;;;1.60;99.90;;;;;;5080421;28;20826;-73
2021/01/27 06:13:18;;;;;;;17.90;11.75;;;1.60;99.90;;;;;;5086979;28;20103;-73
2021/01/27 06:15:46;;;;;;;20.98;12.55;;;1.60;99.90;;;;;;5078833;28;20034;-73
2021/01/27 06:18:22;;;;;;;20.48;13.10;;;1.50;99.90;;;;;;5076902;28;20406;-73
2021/01/27 06:20:48;;;;;;;20.70;13.23;;;1.60;99.90;;;;;;5092506;28;20392;-73
2021/01/27 06:23:17;;;;;;;19.42;12.13;;;1.50;99.90;;;;;;5056987;28;20032;-73
2021/01/27 06:26:03;;;;;;;21.52;13.25;;;1.50;99.90;;;;;;5090161;28;20445;-73
2021/01/27 06:28:54;;;;;;;24.65;16.58;;;1.50;99.90;;;;;;5078142;27;20048;-74
2021/01/27 06:31:49;;;;;;;22.05;14.27;;;1.40;99.90;;;;;;5075255;28;20082;-74
2021/01/27 06:34:24;;;;;;;18.98;12.38;;;1.40;99.90;;;;;;5086178;28;20059;-74
2021/01/27 06:37:07;;;;;;;21.15;14.20;;;1.40;99.90;;;;;;5089477;28;20024;-73
2021/01/27 06:39:42;;;;;;;22.55;14.48;;;1.40;99.90;;;;;;5075133;28;20028;-74
2021/01/27 06:42:33;;;;;;;20.33;13.30;;;1.40;99.90;;;;;;5093093;28;20024;-74
2021/01/27 06:45:10;;;;;;;23.83;14.82;;;1.40;99.90;;;;;;5079428;28;20039;-74
2021/01/27 06:47:54;;;;;;;19.27;13.13;;;1.40;99.90;;;;;;5076391;28;20092;-73
2021/01/27 06:50:26;;;;;;;18.55;12.85;;;1.40;99.90;;;;;;5076426;28;20024;-73
2021/01/27 06:53:11;;;;;;;19.45;12.30;;;1.40;99.90;;;;;;5069392;28;20036;-74
2021/01/27 06:56:01;;;;;;;17.33;12.02;;;1.50;99.90;;;;;;5085453;28;20028;-74
2021/01/27 06:58:42;;;;;;;17.35;11.85;;;1.50;99.90;;;;;;5088750;28;20035;-74
2021/01/27 07:01:34;;;;;;;19.13;12.13;;;1.50;99.90;;;;;;5066298;28;20063;-73
2021/01/27 07:04:34;;;;;;;17.80;12.32;;;1.50;99.90;;;;;;5061698;28;20039;-74
2021/01/27 07:07:12;;;;;;;21.52;12.77;;;1.50;99.90;;;;;;5073177;28;20032;-73
2021/01/27 07:10:25;;;;;;;19.83;13.00;;;1.50;99.90;;;;;;5077383;28;20028;-73
2021/01/27 07:13:15;;;;;;;16.70;12.00;;;1.40;99.90;;;;;;5000171;28;20138;-73
2021/01/27 07:15:46;;;;;;;21.02;13.85;;;1.50;99.90;;;;;;5077799;28;20024;-74
2021/01/27 07:18:36;;;;;;;18.58;13.32;;;1.40;99.90;;;;;;5076497;28;20058;-74
2021/01/27 07:21:33;;;;;;;17.17;12.13;;;1.40;99.90;;;;;;5074462;28;20024;-74
2021/01/27 07:24:04;;;;;;;25.75;15.60;;;1.40;99.90;;;;;;5075151;28;20035;-73
2021/01/27 07:26:36;;;;;;;20.08;13.38;;;1.40;99.90;;;;;;5075844;28;20040;-73
2021/01/27 07:29:10;;;;;;;20.85;14.02;;;1.40;99.90;;;;;;5073689;28;20047;-74
2021/01/27 07:31:42;;;;;;;21.63;14.27;;;1.40;99.90;;;;;;5075074;28;20482;-73
2021/01/27 07:34:23;;;;;;;17.35;12.45;;;1.40;99.90;;;;;;5051280;28;20141;-74
2021/01/27 07:37:06;;;;;;;18.88;12.40;;;1.40;99.90;;;;;;5073619;28;20032;-73
2021/01/27 07:40:06;;;;;;;17.45;11.55;;;1.40;99.90;;;;;;5074775;28;20438;-74
2021/01/27 07:42:43;;;;;;;18.45;11.68;;;1.40;99.90;;;;;;5074146;28;20046;-74
2021/01/27 07:45:12;;;;;;;14.75;10.35;;;1.40;99.90;;;;;;5085977;28;20097;-73
2021/01/27 07:48:01;;;;;;;14.50;10.15;;;1.40;99.90;;;;;;5089943;28;20059;-73
2021/01/27 07:50:27;;;;;;;15.90;10.43;;;1.50;99.90;;;;;;5079392;28;20043;-73
2021/01/27 07:53:21;;;;;;;15.70;10.35;;;1.50;99.90;;;;;;5091543;28;20067;-73
2021/01/27 07:55:55;;;;;;;14.07;9.68;;;1.40;99.90;;;;;;5090290;28;20020;-73
2021/01/27 07:58:48;;;;;;;14.65;10.43;;;1.40;99.90;;;;;;5090050;28;20545;-73
2021/01/27 08:01:21;;;;;;;15.18;10.13;;;1.40;99.90;;;;;;5075616;28;20031;-73
2021/01/27 08:03:52;;;;;;;;;;;1.40;99.90;;;;;;5059403;28;20039;-73
2021/01/27 08:06:22;;;;;;;18.83;11.98;;;1.40;99.90;;;;;;5075112;28;19916;-74
2021/01/27 08:09:00;;;;;;;18.38;11.73;;;1.40;99.90;;;;;;5056709;28;20075;-74
2021/01/27 08:11:37;;;;;;;17.17;11.10;;;1.40;99.90;;;;;;5060187;28;20497;-73
2021/01/27 08:14:07;;;;;;;18.48;11.32;;;1.40;99.90;;;;;;5081972;28;20041;-74
2021/01/27 08:16:52;;;;;;;14.65;10.25;;;1.30;99.90;;;;;;5085636;28;20027;-74
2021/01/27 08:19:20;;;;;;;15.38;10.05;;;1.40;99.90;;;;;;5075716;28;20024;-73
2021/01/27 08:21:51;;;;;;;13.85;9.80;;;1.40;99.90;;;;;;5075924;28;20107;-73
2021/01/27 08:24:37;;;;;;;14.45;9.85;;;1.40;99.90;;;;;;5093326;28;20034;-73
2021/01/27 08:27:18;;;;;;;13.77;8.70;;;1.50;99.90;;;;;;5087457;28;20039;-74
2021/01/27 08:29:56;;;;;;;15.18;9.82;;;1.50;99.90;;;;;;5079472;28;20115;-74
2021/01/27 08:32:28;;;;;;;15.85;10.27;;;1.50;99.90;;;;;;5097773;28;20356;-73
2021/01/27 08:34:56;;;;;;;13.40;8.98;;;1.50;99.90;;;;;;5086160;28;20032;-73
2021/01/27 08:37:34;;;;;;;16.85;10.48;;;1.50;99.90;;;;;;5049035;28;20913;-74
2021/01/27 08:40:20;;;;;;;15.82;9.45;;;1.50;99.90;;;;;;5077539;28;20036;-73
2021/01/27 08:42:46;;;;;;;11.88;7.78;;;1.60;99.90;;;;;;5072940;28;20023;-74
2021/01/27 08:45:24;;;;;;;14.68;9.10;;;1.60;99.90;;;;;;5077404;28;20048;-73
2021/01/27 08:47:56;;;;;;;10.77;7.25;;;1.50;99.90;;;;;;5076281;28;20024;-73
2021/01/27 08:50:46;;;;;;;14.70;9.40;;;1.60;99.90;;;;;;5059270;28;20445;-74
2021/01/27 08:53:15;;;;;;;14.73;9.95;;;1.50;99.90;;;;;;5090774;28;20321;-74
2021/01/27 08:55:44;;;;;;;13.93;8.48;;;1.50;99.90;;;;;;5064716;28;20044;-74
2021/01/27 08:58:19;;;;;;;11.88;7.80;;;1.50;99.90;;;;;;5079579;28;20038;-74
2021/01/27 09:00:48;;;;;;;12.52;8.23;;;1.50;99.90;;;;;;5071662;28;20024;-73
2021/01/27 09:03:42;;;;;;;11.55;7.63;;;1.50;99.90;;;;;;5075842;28;20043;-74
2021/01/27 09:06:34;;;;;;;11.60;7.65;;;1.60;99.90;;;;;;5076951;28;20036;-73
2021/01/27 09:09:10;;;;;;;12.05;8.18;;;1.60;99.90;;;;;;5077542;28;20021;-74
2021/01/27 09:11:38;;;;;;;11.10;7.03;;;1.60;99.90;;;;;;5094393;28;20036;-74
2021/01/27 09:14:12;;;;;;;11.20;7.65;;;1.50;99.90;;;;;;5090346;28;20870;-74
2021/01/27 09:16:43;;;;;;;13.60;7.97;;;1.60;99.90;;;;;;5061663;28;20123;-73
2021/01/27 09:19:17;;;;;;;11.18;7.03;;;1.50;99.90;;;;;;5059133;28;20032;-74
2021/01/27 09:22:03;;;;;;;9.07;6.22;;;1.60;99.90;;;;;;5058984;28;20249;-73
2021/01/27 09:24:42;;;;;;;11.23;6.63;;;1.60;99.90;;;;;;5074889;28;20155;-74
2021/01/27 09:27:18;;;;;;;9.68;6.70;;;1.60;99.90;;;;;;5077488;27;20059;-74
2021/01/27 09:29:52;;;;;;;8.70;5.83;;;1.60;99.90;;;;;;4725108;28;10000407;-73
2021/01/27 09:32:18;;;;;;;8.85;6.05;;;1.60;99.90;;;;;;5075862;27;20411;-73
2021/01/27 09:34:46;;;;;;;8.55;5.30;;;1.60;99.90;;;;;;5060833;28;20028;-73
2021/01/27 09:37:18;;;;;;;8.00;5.47;;;1.60;99.90;;;;;;5061443;28;20036;-73
2021/01/27 09:39:57;;;;;;;7.70;5.20;;;1.60;99.90;;;;;;5074768;28;20016;-73
2021/01/27 09:42:27;;;;;;;7.38;4.95;;;1.60;99.90;;;;;;5060147;28;20296;-72
2021/01/27 09:45:06;;;;;;;8.38;5.85;;;1.70;99.90;;;;;;5075024;28;20028;-73
2021/01/27 09:47:32;;;;;;;8.63;5.88;;;1.70;99.90;;;;;;5049721;28;20469;-72
2021/01/27 09:50:04;;;;;;;8.13;5.60;;;1.70;99.90;;;;;;4708714;28;10000350;-77
2021/01/27 09:52:32;;;;;;;10.05;5.63;;;1.70;99.90;;;;;;5065440;28;20055;-71
2021/01/27 09:55:12;;;;;;;9.25;5.63;;;1.70;99.90;;;;;;5055554;28;20138;-71
2021/01/27 09:57:41;;;;;;;8.75;5.70;;;1.70;99.90;;;;;;5072484;28;20016;-74
2021/01/27 10:00:11;;;;;;;8.20;5.45;;;1.70;99.90;;;;;;5059108;28;20185;-73
2021/01/27 10:02:40;;;;;;;7.68;5.70;;;1.70;99.90;;;;;;5056148;28;20455;-74
2021/01/27 10:05:33;;;;;;;10.90;6.43;;;1.70;99.90;;;;;;5081472;28;20043;-74
2021/01/27 10:08:02;;;;;;;26.80;14.80;;;1.70;99.90;;;;;;5074029;28;20474;-74
2021/01/27 10:10:28;;;;;;;14.18;8.50;;;1.70;99.90;;;;;;5067967;28;20540;-74
2021/01/27 10:13:02;;;;;;;10.07;7.20;;;1.70;99.90;;;;;;5060005;28;20025;-73
2021/01/27 10:15:34;;;;;;;11.40;6.93;;;1.70;99.90;;;;;;5067910;28;20120;-74
2021/01/27 10:18:07;;;;;;;10.80;7.47;;;1.70;99.90;;;;;;5094406;28;20020;-74
2021/01/27 10:20:35;;;;;;;11.68;8.32;;;1.70;99.90;;;;;;5090685;28;20761;-74
2021/01/27 10:23:06;;;;;;;14.40;8.73;;;1.70;99.90;;;;;;5076385;28;20058;-74
2021/01/27 10:25:48;;;;;;;10.57;7.28;;;1.70;99.90;;;;;;5074957;28;20059;-74
2021/01/27 10:28:22;;;;;;;12.05;8.15;;;1.70;99.90;;;;;;5082115;28;20036;-72
2021/01/27 10:30:51;;;;;;;11.48;7.28;;;1.70;99.90;;;;;;5089554;28;20439;-74
2021/01/27 10:33:39;;;;;;;11.23;7.13;;;1.70;99.90;;;;;;5094896;28;20034;-73
2021/01/27 10:36:46;;;;;;;10.57;7.45;;;1.80;99.90;;;;;;5093722;28;20020;-73
2021/01/27 10:39:29;;;;;;;9.00;6.35;;;1.80;99.90;;;;;;5088845;28;20110;-74
2021/01/27 10:42:15;;;;;;;9.35;6.70;;;1.80;99.90;;;;;;5071738;28;20096;-73
2021/01/27 10:44:43;;;;;;;10.77;7.60;;;1.80;99.90;;;;;;5079867;28;20032;-74
2021/01/27 10:47:13;;;;;;;11.48;7.38;;;1.80;99.90;;;;;;5089082;28;20127;-75
2021/01/27 10:49:46;;;;;;;11.02;7.47;;;1.80;99.90;;;;;;5092494;28;20052;-73
2021/01/27 10:52:41;;;;;;;10.43;7.18;;;1.80;99.90;;;;;;5061922;28;20047;-73
2021/01/27 10:55:13;;;;;;;10.00;7.22;;;1.80;99.90;;;;;;5074592;28;20109;-73
2021/01/27 10:57:42;;;;;;;9.80;7.10;;;1.80;99.90;;;;;;5080187;28;20476;-73
2021/01/27 11:00:13;;;;;;;9.23;6.43;;;1.80;99.90;;;;;;5090108;28;20061;-73
2021/01/27 11:02:41;;;;;;;8.63;6.55;;;1.90;99.90;;;;;;5062346;28;20016;-73
2021/01/27 11:05:10;;;;;;;8.05;5.72;;;1.90;99.90;;;;;;5090874;28;20440;-74
2021/01/27 11:07:38;;;;;;;9.63;6.38;;;1.90;99.90;;;;;;5096142;28;20055;-73
2021/01/27 11:10:05;;;;;;;8.55;6.00;;;1.80;99.90;;;;;;5083940;28;20019;-73
2021/01/27 11:12:32;;;;;;;18.55;10.43;;;1.80;99.90;;;;;;5090478;28;20069;-74
2021/01/27 11:15:02;;;;;;;9.95;6.32;;;1.90;99.90;;;;;;5089831;28;20142;-74
2021/01/27 11:17:28;;;;;;;8.13;5.78;;;1.90;99.90;;;;;;5090922;28;20024;-73
2021/01/27 11:19:56;;;;;;;8.15;5.80;;;1.90;99.90;;;;;;5092114;28;20028;-73
2021/01/27 11:22:22;;;;;;;7.75;5.78;;;1.90;99.90;;;;;;5095562;28;20020;-74
2021/01/27 11:24:51;;;;;;;8.00;5.82;;;2.00;99.90;;;;;;5096566;28;20092;-74
2021/01/27 11:27:17;;;;;;;8.85;6.43;;;1.90;99.90;;;;;;5097136;28;20031;-74
2021/01/27 11:29:45;;;;;;;9.18;6.78;;;2.00;99.90;;;;;;5087327;28;20028;-74
2021/01/27 11:32:13;;;;;;;9.85;7.10;;;2.00;99.90;;;;;;5091486;28;20051;-74
2021/01/27 11:34:38;;;;;;;9.75;7.07;;;2.00;99.90;;;;;;5093175;28;20058;-74
2021/01/27 11:37:09;;;;;;;10.15;7.13;;;2.00;99.90;;;;;;5092701;28;20522;-73
2021/01/27 11:39:37;;;;;;;10.35;7.40;;;2.00;99.90;;;;;;5088825;28;20024;-74
2021/01/27 11:42:04;;;;;;;11.23;8.45;;;2.00;99.90;;;;;;5083330;28;20031;-74
2021/01/27 11:44:30;;;;;;;12.40;8.27;;;1.90;99.90;;;;;;5090540;28;20043;-74
2021/01/27 11:46:58;;;;;;;10.65;7.63;;;1.90;99.90;;;;;;5090950;28;20032;-75
2021/01/27 11:49:26;;;;;;;11.85;8.35;;;1.90;99.90;;;;;;5089540;28;20040;-74
2021/01/27 11:51:56;;;;;;;12.48;8.57;;;1.90;99.90;;;;;;5091876;28;20032;-73
2021/01/27 11:54:23;;;;;;;11.50;8.52;;;1.90;99.90;;;;;;5087367;28;20027;-74
2021/01/27 11:56:53;;;;;;;11.95;8.60;;;1.80;99.90;;;;;;5090266;28;20532;-74
2021/01/27 11:59:19;;;;;;;11.93;8.52;;;1.80;99.90;;;;;;5088265;28;20215;-74
2021/01/27 12:01:45;;;;;;;11.82;8.77;;;1.80;99.90;;;;;;5083272;28;20544;-73
2021/01/27 12:04:13;;;;;;;11.65;8.55;;;1.90;99.90;;;;;;5091780;28;20031;-74
2021/01/27 12:06:38;;;;;;;11.32;7.72;;;1.90;99.90;;;;;;5077571;28;20116;-74
2021/01/27 12:09:04;;;;;;;10.30;7.47;;;1.90;99.90;;;;;;5092226;28;20102;-74
2021/01/27 12:11:32;;;;;;;9.82;7.38;;;1.90;99.90;;;;;;5088982;28;20105;-74
2021/01/27 12:14:00;;;;;;;10.00;7.13;;;1.90;99.90;;;;;;5090060;28;20351;-74
2021/01/27 12:16:26;;;;;;;9.30;7.20;;;1.90;99.90;;;;;;5088008;28;20032;-74
2021/01/27 12:18:52;;;;;;;10.43;7.65;;;1.90;99.90;;;;;;5089651;28;20095;-74
2021/01/27 12:21:17;;;;;;;9.40;7.25;;;1.90;99.90;;;;;;5087874;28;20016;-74
2021/01/27 12:23:47;;;;;;;12.80;8.23;;;1.90;99.90;;;;;;5090794;28;20047;-74
2021/01/27 12:26:15;;;;;;;11.52;8.70;;;1.90;99.90;;;;;;5078923;28;20083;-74
2021/01/27 12:28:44;;;;;;;39.72;9.32;;;1.90;99.90;;;;;;5089631;28;20046;-74
2021/01/27 12:31:11;;;;;;;11.57;8.02;;;1.90;99.90;;;;;;5087551;28;20577;-73
2021/01/27 12:33:39;;;;;;;10.50;7.40;;;1.90;99.90;;;;;;5090881;28;20102;-74
2021/01/27 12:36:06;;;;;;;11.80;7.85;;;1.90;99.90;;;;;;5090513;28;20090;-74
2021/01/27 12:38:37;;;;;;;10.82;8.25;;;1.90;99.90;;;;;;5078949;28;20069;-74
2021/01/27 12:41:03;;;;;;;12.73;7.60;;;1.90;99.90;;;;;;5089631;28;20024;-74
2021/01/27 12:43:28;;;;;;;10.05;7.30;;;1.90;99.90;;;;;;5091936;28;20040;-74
2021/01/27 12:45:55;;;;;;;10.93;7.43;;;1.90;99.90;;;;;;5094303;28;20024;-74
2021/01/27 12:48:24;;;;;;;10.95;7.65;;;1.90;99.90;;;;;;5078033;28;20028;-75
2021/01/27 12:50:52;;;;;;;10.45;7.60;;;2.00;99.90;;;;;;5090103;28;20086;-74
2021/01/27 12:53:19;;;;;;;11.07;7.50;;;2.00;99.90;;;;;;5086757;28;20047;-74
2021/01/27 12:55:45;;;;;;;9.82;6.95;;;2.00;99.90;;;;;;5087390;28;20045;-74
2021/01/27 12:58:13;;;;;;;9.18;6.78;;;2.10;99.90;;;;;;5090074;28;20043;-75
2021/01/27 13:00:39;;;;;;;9.48;6.75;;;2.00;99.90;;;;;;5085467;28;20368;-74
2021/01/27 13:03:05;;;;;;;8.77;6.55;;;2.10;99.90;;;;;;5058563;28;20028;-73
2021/01/27 13:05:33;;;;;;;11.50;7.90;;;2.10;99.90;;;;;;5071009;28;20072;-74
2021/01/27 13:08:01;;;;;;;9.57;7.22;;;2.10;99.90;;;;;;5090616;28;20028;-74
2021/01/27 13:10:29;;;;;;;8.25;6.50;;;2.10;99.90;;;;;;5090528;28;20024;-74
2021/01/27 13:12:59;;;;;;;10.90;7.72;;;2.10;99.90;;;;;;5089078;28;20078;-75
2021/01/27 13:15:27;;;;;;;9.35;6.65;;;2.10;99.90;;;;;;5085445;28;20044;-74